createdAt,value
2023-05-07T00:00:57.556Z,13.20
2023-05-07T00:03:29.794Z,13.20
2023-05-07T00:06:01.706Z,13.20
2023-05-07T00:08:33.260Z,13.10
2023-05-07T00:11:05.782Z,13.10
2023-05-07T00:13:37.240Z,13.10
2023-05-07T00:16:08.944Z,13.10
2023-05-07T00:18:40.868Z,13.10
2023-05-07T00:21:12.476Z,13.10
2023-05-07T00:23:44.091Z,13.10
2023-05-07T00:26:15.647Z,13.10
2023-05-07T00:28:47.037Z,13.10
2023-05-07T00:31:18.643Z,13.00
2023-05-07T00:33:50.214Z,13.00
2023-05-07T00:36:21.627Z,13.00
2023-05-07T00:38:53.100Z,12.90
2023-05-07T00:41:24.648Z,12.90
2023-05-07T00:43:56.157Z,12.90
2023-05-07T00:46:27.584Z,12.90
2023-05-07T00:48:59.084Z,12.80
2023-05-07T00:51:30.956Z,12.80
2023-05-07T00:54:04.343Z,12.80
2023-05-07T00:56:36.317Z,12.80
2023-05-07T00:59:08.811Z,12.80
2023-05-07T01:01:40.309Z,12.80
2023-05-07T01:04:11.835Z,12.70
2023-05-07T01:06:43.961Z,12.70
2023-05-07T01:09:16.245Z,12.70
2023-05-07T01:11:48.631Z,12.60
2023-05-07T01:14:21.520Z,12.60
2023-05-07T01:16:53.067Z,12.60
2023-05-07T01:19:24.643Z,12.70
2023-05-07T01:21:59.021Z,12.70
2023-05-07T01:24:31.113Z,12.70
2023-05-07T01:27:03.127Z,12.70
2023-05-07T01:29:34.663Z,12.70
2023-05-07T01:32:07.231Z,12.70
2023-05-07T01:34:39.556Z,12.70
2023-05-07T01:37:11.506Z,12.70
2023-05-07T01:39:43.280Z,12.70
2023-05-07T01:42:15.474Z,12.70
2023-05-07T01:44:48.034Z,12.60
2023-05-07T01:47:21.037Z,12.60
2023-05-07T01:49:52.733Z,12.60
2023-05-07T01:52:25.499Z,12.50
2023-05-07T01:54:57.059Z,12.50
2023-05-07T01:57:28.437Z,12.40
2023-05-07T02:00:00.003Z,12.40
2023-05-07T02:02:31.621Z,12.30
2023-05-07T02:05:03.975Z,12.30
2023-05-07T02:07:35.623Z,12.20
2023-05-07T02:10:09.553Z,12.20
2023-05-07T02:12:41.051Z,12.20
2023-05-07T02:15:14.145Z,12.20
2023-05-07T02:18:02.706Z,12.20
2023-05-07T02:20:34.259Z,12.10
2023-05-07T02:23:05.764Z,12.10
2023-05-07T02:25:37.319Z,12.10
2023-05-07T02:28:08.851Z,12.10
2023-05-07T02:30:41.014Z,12.10
2023-05-07T02:33:13.842Z,12.00
2023-05-07T02:35:45.342Z,12.00
2023-05-07T02:38:16.930Z,12.00
2023-05-07T02:40:48.440Z,12.00
2023-05-07T02:43:20.080Z,12.00
2023-05-07T02:45:51.736Z,12.00
2023-05-07T02:48:23.218Z,12.00
2023-05-07T02:50:54.637Z,12.00
2023-05-07T02:53:27.409Z,12.00
2023-05-07T02:55:59.992Z,12.00
2023-05-07T02:58:31.896Z,12.00
2023-05-07T03:01:03.315Z,11.90
2023-05-07T03:03:34.765Z,12.00
2023-05-07T03:06:07.850Z,12.00
2023-05-07T03:08:39.286Z,12.00
2023-05-07T03:11:10.928Z,12.00
2023-05-07T03:13:42.513Z,11.90
2023-05-07T03:16:14.120Z,11.90
2023-05-07T03:18:45.755Z,11.90
2023-05-07T03:21:17.133Z,11.80
2023-05-07T03:23:49.000Z,11.80
2023-05-07T03:26:20.905Z,11.70
2023-05-07T03:28:52.482Z,11.70
2023-05-07T03:31:24.041Z,11.70
2023-05-07T03:33:57.312Z,11.70
2023-05-07T03:36:29.172Z,11.60
2023-05-07T03:39:00.708Z,11.70
2023-05-07T03:41:32.148Z,11.70
2023-05-07T03:44:03.636Z,11.70
2023-05-07T03:46:35.523Z,11.70
2023-05-07T03:49:06.940Z,11.70
2023-05-07T03:51:38.379Z,11.60
2023-05-07T03:54:09.970Z,11.60
2023-05-07T03:56:41.592Z,11.60
2023-05-07T03:59:13.950Z,11.60
2023-05-07T04:01:45.827Z,11.60
2023-05-07T04:04:19.048Z,11.60
2023-05-07T04:06:51.044Z,11.70
2023-05-07T04:09:22.639Z,11.70
2023-05-07T04:11:54.102Z,11.70
2023-05-07T04:14:25.589Z,11.80
2023-05-07T04:16:57.034Z,11.80
2023-05-07T04:19:28.543Z,11.90
2023-05-07T04:21:59.965Z,11.90
2023-05-07T04:24:34.681Z,12.00
2023-05-07T04:27:07.306Z,12.00
2023-05-07T04:29:40.675Z,12.10
2023-05-07T04:32:12.428Z,12.10
2023-05-07T04:34:44.262Z,12.10
2023-05-07T04:37:15.756Z,12.20
2023-05-07T04:39:47.288Z,12.30
2023-05-07T04:42:19.440Z,12.30
2023-05-07T04:44:52.500Z,12.20
2023-05-07T04:47:24.070Z,12.20
2023-05-07T04:49:55.436Z,12.20
2023-05-07T04:52:27.782Z,12.40
2023-05-07T04:55:01.079Z,12.50
2023-05-07T04:57:32.718Z,12.70
2023-05-07T05:00:05.375Z,12.90
2023-05-07T05:02:37.125Z,13.00
2023-05-07T05:05:10.212Z,13.20
2023-05-07T05:07:41.920Z,13.30
2023-05-07T05:10:13.722Z,13.40
2023-05-07T05:12:45.408Z,13.50
2023-05-07T05:15:16.878Z,13.50
2023-05-07T05:17:48.595Z,13.60
2023-05-07T05:20:20.243Z,13.70
2023-05-07T05:22:52.033Z,13.70
2023-05-07T05:25:23.542Z,13.60
2023-05-07T05:27:54.986Z,13.60
2023-05-07T05:30:26.452Z,13.80
2023-05-07T05:32:58.355Z,14.00
2023-05-07T05:35:29.839Z,14.30
2023-05-07T05:38:01.398Z,15.30
2023-05-07T05:40:33.026Z,15.90
2023-05-07T05:43:04.728Z,15.90
2023-05-07T05:45:36.540Z,16.00
2023-05-07T05:48:09.533Z,15.70
2023-05-07T05:50:41.309Z,15.60
2023-05-07T05:53:12.868Z,15.90
2023-05-07T05:55:44.648Z,16.50
2023-05-07T05:58:16.780Z,16.90
2023-05-07T06:00:49.280Z,17.40
2023-05-07T06:03:20.925Z,17.80
2023-05-07T06:05:52.501Z,17.70
2023-05-07T06:08:23.991Z,17.70
2023-05-07T06:10:55.503Z,18.30
2023-05-07T06:13:27.265Z,19.20
2023-05-07T06:15:58.942Z,19.90
2023-05-07T06:18:30.893Z,20.30
2023-05-07T06:21:03.032Z,20.70
2023-05-07T06:23:34.628Z,21.10
2023-05-07T06:26:06.452Z,21.60
2023-05-07T06:28:38.014Z,22.30
2023-05-07T06:31:17.194Z,23.00
2023-05-07T06:33:50.969Z,23.40
2023-05-07T06:36:22.373Z,23.60
2023-05-07T06:38:53.960Z,23.80
2023-05-07T06:41:25.383Z,23.70
2023-05-07T06:43:56.854Z,23.80
2023-05-07T06:46:28.335Z,23.50
2023-05-07T06:49:00.227Z,23.20
2023-05-07T06:51:31.717Z,22.50
2023-05-07T06:54:04.952Z,22.00
2023-05-07T06:56:36.522Z,21.50
2023-05-07T06:59:09.744Z,21.40
2023-05-07T07:01:42.693Z,21.30
2023-05-07T07:04:14.281Z,20.80
2023-05-07T07:06:45.907Z,20.70
2023-05-07T07:09:17.888Z,20.80
2023-05-07T07:11:49.396Z,21.30
2023-05-07T07:14:21.179Z,21.20
2023-05-07T07:16:52.717Z,21.30
2023-05-07T07:19:24.134Z,21.10
2023-05-07T07:21:55.853Z,20.90
2023-05-07T07:24:27.470Z,20.70
2023-05-07T07:26:59.043Z,20.60
2023-05-07T07:29:31.395Z,20.20
2023-05-07T07:32:03.029Z,19.80
2023-05-07T07:34:35.220Z,19.30
2023-05-07T07:37:07.331Z,19.10
2023-05-07T07:39:39.287Z,18.80
2023-05-07T07:42:10.955Z,18.40
2023-05-07T07:44:42.433Z,18.20
2023-05-07T07:47:14.029Z,18.00
2023-05-07T07:49:45.733Z,18.00
2023-05-07T07:52:17.282Z,18.00
2023-05-07T07:54:48.771Z,18.00
2023-05-07T07:57:20.369Z,17.80
2023-05-07T07:59:52.261Z,17.70
2023-05-07T08:02:23.960Z,17.80
2023-05-07T08:04:57.280Z,17.60
2023-05-07T08:07:29.043Z,17.30
2023-05-07T08:10:00.574Z,17.30
2023-05-07T08:12:32.229Z,17.40
2023-05-07T08:15:03.729Z,17.40
2023-05-07T08:17:35.443Z,17.30
2023-05-07T08:20:09.987Z,17.20
2023-05-07T08:22:41.907Z,17.30
2023-05-07T08:25:13.502Z,17.30
2023-05-07T08:27:45.855Z,17.50
2023-05-07T08:30:18.371Z,17.70
2023-05-07T08:32:49.969Z,18.00
2023-05-07T08:35:21.899Z,18.10
2023-05-07T08:37:53.386Z,18.30
2023-05-07T08:40:27.705Z,18.40
2023-05-07T08:43:00.321Z,18.50
2023-05-07T08:45:34.810Z,18.50
2023-05-07T08:48:09.541Z,18.50
2023-05-07T08:50:41.052Z,18.40
2023-05-07T08:53:12.731Z,18.30
2023-05-07T08:55:44.227Z,18.20
2023-05-07T08:58:15.831Z,18.10
2023-05-07T09:00:48.746Z,17.90
2023-05-07T09:03:20.489Z,17.70
2023-05-07T09:05:51.942Z,17.50
2023-05-07T09:08:27.187Z,17.30
2023-05-07T09:10:58.996Z,17.30
2023-05-07T09:13:31.557Z,17.20
2023-05-07T09:16:13.060Z,17.00
2023-05-07T09:18:45.840Z,17.00
2023-05-07T09:21:20.320Z,17.00
2023-05-07T09:23:53.330Z,17.00
2023-05-07T09:26:25.996Z,17.00
2023-05-07T09:28:57.449Z,17.00
2023-05-07T09:31:29.073Z,17.10
2023-05-07T09:34:01.916Z,17.20
2023-05-07T09:36:35.155Z,17.30
2023-05-07T09:39:06.758Z,17.50
2023-05-07T09:41:46.667Z,17.70
2023-05-07T09:44:18.614Z,18.10
2023-05-07T09:46:53.752Z,18.50
2023-05-07T09:49:27.323Z,18.80
2023-05-07T09:52:02.847Z,19.20
2023-05-07T09:54:35.304Z,19.80
2023-05-07T09:57:08.039Z,20.10
2023-05-07T09:59:42.749Z,20.60
2023-05-07T10:02:16.872Z,21.00
2023-05-07T10:04:51.239Z,21.40
2023-05-07T10:07:25.566Z,21.40
2023-05-07T10:13:45.854Z,21.80
2023-05-07T10:19:04.698Z,21.60
2023-05-07T10:21:58.893Z,21.60
2023-05-07T10:24:35.380Z,21.60
2023-05-07T10:27:09.684Z,21.90
2023-05-07T10:29:45.587Z,22.10
2023-05-07T10:32:33.126Z,22.50
2023-05-07T10:35:08.656Z,22.60
2023-05-07T10:37:40.449Z,22.90
2023-05-07T10:40:15.334Z,23.20
2023-05-07T10:42:57.827Z,23.40
2023-05-07T10:45:30.573Z,23.30
2023-05-07T10:48:28.718Z,23.30
2023-05-07T10:50:47.997Z,23.30
2023-05-07T10:53:29.654Z,23.30
2023-05-07T10:56:31.480Z,23.30
2023-05-07T10:59:46.955Z,23.40
2023-05-07T11:02:18.680Z,23.10
2023-05-07T11:05:12.538Z,23.40
2023-05-07T11:07:47.624Z,23.60
2023-05-07T11:10:19.104Z,23.70
2023-05-07T11:12:55.934Z,23.80
2023-05-07T11:15:44.375Z,23.60
2023-05-07T11:18:18.048Z,23.80
2023-05-07T11:20:57.546Z,23.90
2023-05-07T11:24:16.258Z,24.10
2023-05-07T11:26:51.666Z,24.10
2023-05-07T11:29:24.220Z,24.10
2023-05-07T11:31:58.146Z,24.30
2023-05-07T11:34:31.608Z,24.50
2023-05-07T11:37:04.867Z,24.40
2023-05-07T11:39:37.245Z,24.30
2023-05-07T11:42:10.196Z,24.50
2023-05-07T11:44:49.583Z,24.70
2023-05-07T11:47:22.065Z,24.70
2023-05-07T11:49:55.982Z,24.70
2023-05-07T11:52:27.574Z,24.70
2023-05-07T11:55:01.380Z,24.80
2023-05-07T11:57:34.248Z,24.80
2023-05-07T12:00:07.078Z,24.90
2023-05-07T12:02:38.706Z,24.90
2023-05-07T12:05:11.672Z,24.90
2023-05-07T12:07:43.342Z,24.90
2023-05-07T12:10:15.998Z,24.90
2023-05-07T12:12:49.910Z,25.00
2023-05-07T12:15:25.247Z,25.00
2023-05-07T12:17:56.813Z,24.90
2023-05-07T12:20:28.317Z,25.00
2023-05-07T12:23:00.292Z,25.10
2023-05-07T12:25:33.881Z,25.20
2023-05-07T12:28:06.531Z,25.30
2023-05-07T12:30:40.755Z,25.40
2023-05-07T12:33:12.357Z,25.30
2023-05-07T12:35:45.309Z,25.10
2023-05-07T12:38:18.745Z,25.10
2023-05-07T12:40:52.492Z,25.30
2023-05-07T12:43:26.572Z,25.40
2023-05-07T12:45:59.136Z,25.40
2023-05-07T12:48:30.782Z,25.40
2023-05-07T12:51:03.775Z,25.20
2023-05-07T12:53:35.274Z,25.00
2023-05-07T12:56:08.947Z,24.90
2023-05-07T12:58:41.111Z,24.70
2023-05-07T13:01:14.301Z,24.60
2023-05-07T13:03:48.795Z,24.40
2023-05-07T13:06:20.446Z,24.30
2023-05-07T13:08:58.076Z,24.20
2023-05-07T13:11:29.611Z,24.20
2023-05-07T13:14:01.510Z,24.40
2023-05-07T13:16:33.148Z,24.50
2023-05-07T13:19:04.809Z,24.60
2023-05-07T13:21:36.248Z,24.70
2023-05-07T13:24:09.258Z,24.70
2023-05-07T13:26:40.676Z,24.70
2023-05-07T13:29:12.287Z,24.80
2023-05-07T13:31:45.102Z,24.80
2023-05-07T13:34:16.746Z,24.90
2023-05-07T13:36:48.386Z,24.70
2023-05-07T13:39:20.029Z,24.50
2023-05-07T13:41:51.516Z,24.30
2023-05-07T13:44:23.010Z,24.10
2023-05-07T13:46:54.441Z,24.00
2023-05-07T13:49:26.200Z,23.90
2023-05-07T13:51:57.815Z,23.80
2023-05-07T13:54:29.354Z,23.80
2023-05-07T13:57:01.334Z,23.80
2023-05-07T13:59:33.524Z,23.90
2023-05-07T14:02:05.081Z,24.10
2023-05-07T14:04:36.769Z,24.30
2023-05-07T14:07:08.540Z,24.40
2023-05-07T14:09:40.242Z,24.40
2023-05-07T14:12:11.869Z,24.30
2023-05-07T14:14:43.424Z,24.30
2023-05-07T14:17:15.250Z,24.00
2023-05-07T14:19:46.882Z,23.70
2023-05-07T14:22:18.405Z,23.20
2023-05-07T14:25:05.300Z,22.90
2023-05-07T14:27:23.632Z,22.50
2023-05-07T14:29:55.648Z,22.20
2023-05-07T14:32:38.485Z,22.00
2023-05-07T14:35:11.393Z,21.80
2023-05-07T14:37:44.712Z,21.60
2023-05-07T14:40:19.974Z,21.50
2023-05-07T14:42:51.453Z,21.40
2023-05-07T14:45:23.859Z,21.30
2023-05-07T14:47:56.464Z,21.20
2023-05-07T14:50:28.506Z,21.00
2023-05-07T14:53:00.245Z,20.70
2023-05-07T14:55:33.386Z,20.30
2023-05-07T14:58:05.003Z,19.80
2023-05-07T15:00:36.820Z,19.30
2023-05-07T15:03:10.593Z,18.90
2023-05-07T15:05:42.469Z,18.80
2023-05-07T15:08:14.079Z,18.60
2023-05-07T15:10:45.575Z,18.50
2023-05-07T15:13:17.169Z,18.40
2023-05-07T15:15:48.851Z,18.20
2023-05-07T15:18:22.663Z,18.10
2023-05-07T15:20:53.496Z,17.90
2023-05-07T15:23:25.098Z,17.80
2023-05-07T15:25:56.606Z,17.70
2023-05-07T15:28:29.259Z,17.60
2023-05-07T15:31:19.644Z,17.50
2023-05-07T15:33:52.845Z,17.50
2023-05-07T15:36:28.364Z,17.40
2023-05-07T15:39:00.077Z,17.20
2023-05-07T15:41:31.583Z,16.70
2023-05-07T15:44:03.269Z,16.00
2023-05-07T15:46:34.812Z,15.30
2023-05-07T15:49:06.634Z,14.70
2023-05-07T15:51:38.299Z,14.50
2023-05-07T15:54:09.839Z,14.40
2023-05-07T15:56:41.524Z,14.30
2023-05-07T15:59:13.455Z,14.20
2023-05-07T16:01:45.437Z,14.20
2023-05-07T16:04:17.527Z,14.20
2023-05-07T16:06:49.029Z,14.10
2023-05-07T16:09:21.020Z,14.00
2023-05-07T16:11:52.539Z,14.00
2023-05-07T16:14:25.223Z,14.00
2023-05-07T16:16:57.143Z,14.00
2023-05-07T16:19:29.498Z,14.00
2023-05-07T16:22:01.684Z,14.00
2023-05-07T16:24:33.403Z,13.90
2023-05-07T16:27:06.803Z,13.90
2023-05-07T16:29:38.371Z,14.00
2023-05-07T16:32:09.961Z,13.90
2023-05-07T16:34:41.968Z,13.80
2023-05-07T16:37:13.418Z,13.80
2023-05-07T16:39:44.942Z,13.90
2023-05-07T16:42:16.345Z,13.80
2023-05-07T16:44:47.892Z,13.70
2023-05-07T16:47:19.722Z,13.80
2023-05-07T16:49:52.058Z,13.80
2023-05-07T16:52:23.471Z,13.80
2023-05-07T16:54:57.021Z,13.70
2023-05-07T16:57:28.699Z,13.80
2023-05-07T17:00:00.791Z,13.60
2023-05-07T17:02:32.532Z,13.70
2023-05-07T17:05:06.139Z,13.60
2023-05-07T17:07:37.664Z,13.50
2023-05-07T17:10:10.998Z,13.40
2023-05-07T17:12:42.688Z,13.30
2023-05-07T17:15:14.731Z,13.20
2023-05-07T17:17:46.226Z,13.10
2023-05-07T17:20:18.920Z,13.10
2023-05-07T17:22:50.415Z,13.10
2023-05-07T17:25:23.187Z,13.10
2023-05-07T17:27:54.671Z,13.10
2023-05-07T17:30:26.847Z,13.10
2023-05-07T17:33:06.286Z,13.10
2023-05-07T17:35:32.209Z,13.10
2023-05-07T17:38:04.362Z,13.10
2023-05-07T17:40:35.990Z,13.10
2023-05-07T17:43:07.492Z,13.10
2023-05-07T17:45:38.918Z,13.10
2023-05-07T17:48:10.843Z,13.10
2023-05-07T17:50:42.460Z,13.10
2023-05-07T17:53:14.113Z,13.10
2023-05-07T17:55:45.887Z,13.20
2023-05-07T17:58:17.457Z,13.20
2023-05-07T18:00:48.914Z,13.10
2023-05-07T18:03:20.933Z,13.20
2023-05-07T18:05:52.515Z,13.20
2023-05-07T18:08:24.066Z,13.20
2023-05-07T18:10:55.721Z,13.20
2023-05-07T18:13:27.407Z,13.10
2023-05-07T18:16:08.413Z,13.10
2023-05-07T18:18:38.572Z,13.10
2023-05-07T18:21:12.346Z,13.20
2023-05-07T18:23:43.795Z,13.20
2023-05-07T18:26:15.783Z,13.20
2023-05-07T18:28:47.311Z,13.20
2023-05-07T18:31:20.626Z,13.20
2023-05-07T18:33:55.518Z,13.20
2023-05-07T18:36:28.049Z,13.20
2023-05-07T18:38:59.668Z,13.20
2023-05-07T18:41:31.317Z,13.20
2023-05-07T18:44:02.822Z,13.20
2023-05-07T18:46:34.561Z,13.20
2023-05-07T18:49:06.271Z,13.20
2023-05-07T18:51:37.824Z,13.30
2023-05-07T18:54:09.229Z,13.20
2023-05-07T18:56:40.712Z,13.20
2023-05-07T18:59:12.192Z,13.20
2023-05-07T19:01:43.811Z,13.20
2023-05-07T19:04:16.460Z,13.20
2023-05-07T19:06:48.031Z,13.10
2023-05-07T19:09:19.597Z,13.10
2023-05-07T19:11:51.099Z,13.10
2023-05-07T19:14:22.962Z,13.10
2023-05-07T19:16:54.368Z,13.20
2023-05-07T19:19:27.685Z,13.20
2023-05-07T19:21:59.366Z,13.30
2023-05-07T19:24:31.155Z,13.30
2023-05-07T19:27:02.839Z,13.30
2023-05-07T19:29:34.345Z,13.20
2023-05-07T19:32:06.544Z,13.20
2023-05-07T19:34:38.968Z,13.20
2023-05-07T19:37:10.512Z,13.20
2023-05-07T19:39:42.276Z,13.20
2023-05-07T19:42:14.344Z,13.20
2023-05-07T19:44:46.028Z,13.20
2023-05-07T19:47:17.622Z,13.20
2023-05-07T19:49:49.138Z,13.20
2023-05-07T19:52:21.154Z,13.20
2023-05-07T19:54:52.631Z,13.20
2023-05-07T19:57:24.113Z,13.10
2023-05-07T19:59:55.643Z,13.10
2023-05-07T20:02:28.169Z,13.10
2023-05-07T20:04:59.721Z,13.10
2023-05-07T20:07:31.286Z,13.10
2023-05-07T20:10:02.850Z,13.10
2023-05-07T20:12:34.295Z,13.10
2023-05-07T20:15:06.822Z,13.10
2023-05-07T20:17:38.423Z,13.10
2023-05-07T20:20:12.137Z,13.10
2023-05-07T20:22:43.871Z,13.00
2023-05-07T20:25:15.451Z,13.10
2023-05-07T20:27:47.005Z,13.10
2023-05-07T20:30:20.400Z,13.20
2023-05-07T20:32:52.077Z,13.20
2023-05-07T20:35:23.674Z,13.20
2023-05-07T20:37:55.165Z,13.30
2023-05-07T20:40:28.033Z,13.20
2023-05-07T20:42:59.485Z,13.20
2023-05-07T20:45:31.446Z,13.20
2023-05-07T20:48:03.491Z,13.30
2023-05-07T20:50:35.332Z,13.30
2023-05-07T20:53:06.750Z,13.30
2023-05-07T20:55:38.338Z,13.30
2023-05-07T20:58:09.777Z,13.30
2023-05-07T21:00:41.372Z,13.40
2023-05-07T21:03:12.868Z,13.40
2023-05-07T21:05:44.424Z,13.30
2023-05-07T21:08:15.838Z,13.30
2023-05-07T21:10:47.610Z,13.20
2023-05-07T21:13:19.328Z,13.20
2023-05-07T21:15:51.072Z,13.20
2023-05-07T21:18:23.306Z,13.20
2023-05-07T21:20:54.773Z,13.30
2023-05-07T21:23:26.340Z,13.30
2023-05-07T21:25:57.853Z,13.30
2023-05-07T21:28:29.867Z,13.30
2023-05-07T21:31:01.316Z,13.30
2023-05-07T21:33:32.876Z,13.40
2023-05-07T21:36:04.302Z,13.40
2023-05-07T21:38:36.395Z,13.40
2023-05-07T21:41:08.404Z,13.40
2023-05-07T21:43:42.319Z,13.40
2023-05-07T21:46:14.019Z,13.30
2023-05-07T21:48:45.518Z,13.40
2023-05-07T21:51:17.403Z,13.40
2023-05-07T21:53:48.897Z,13.40
2023-05-07T21:56:20.285Z,13.40
2023-05-07T21:58:51.762Z,13.40
2023-05-07T22:01:23.268Z,13.40
2023-05-07T22:03:55.254Z,13.40
2023-05-07T22:06:27.216Z,13.40
2023-05-07T22:08:58.803Z,13.40
2023-05-07T22:11:30.222Z,13.40
2023-05-07T22:14:01.838Z,13.40
2023-05-07T22:16:33.288Z,13.40
2023-05-07T22:19:04.844Z,13.50
2023-05-07T22:21:36.365Z,13.50
2023-05-07T22:24:09.269Z,13.50
2023-05-07T22:26:40.764Z,13.40
2023-05-07T22:29:12.385Z,13.40
2023-05-07T22:31:43.880Z,13.40
2023-05-07T22:34:15.602Z,13.30
2023-05-07T22:36:47.638Z,13.30
2023-05-07T22:39:19.121Z,13.20
2023-05-07T22:41:50.723Z,13.30
2023-05-07T22:44:22.275Z,13.20
2023-05-07T22:46:53.670Z,13.20
2023-05-07T22:49:25.137Z,13.20
2023-05-07T22:51:56.773Z,13.20
2023-05-07T22:54:28.338Z,13.30
2023-05-07T22:57:00.737Z,13.30
2023-05-07T22:59:33.435Z,13.20
2023-05-07T23:02:05.101Z,13.30
2023-05-07T23:04:36.803Z,13.30
2023-05-07T23:07:08.237Z,13.30
2023-05-07T23:09:39.806Z,13.30
2023-05-07T23:12:11.235Z,13.30
2023-05-07T23:14:42.963Z,13.30
2023-05-07T23:17:14.363Z,13.30
2023-05-07T23:19:47.783Z,13.30
2023-05-07T23:22:19.289Z,13.30
2023-05-07T23:24:50.807Z,13.30
2023-05-07T23:27:22.283Z,13.30
2023-05-07T23:29:53.689Z,13.30
2023-05-07T23:32:25.215Z,13.30
2023-05-07T23:34:57.167Z,13.20
2023-05-07T23:37:28.670Z,13.20
2023-05-07T23:40:00.078Z,13.20
2023-05-07T23:42:31.717Z,13.10
2023-05-07T23:45:03.315Z,13.10
2023-05-07T23:47:34.846Z,13.10
2023-05-07T23:50:07.455Z,13.10
2023-05-07T23:52:39.538Z,13.10
2023-05-07T23:55:12.028Z,13.10
2023-05-07T23:57:43.533Z,13.10
